createdAt,value
2023-01-15T11:20:31.540Z,100.00
2023-01-15T11:23:07.050Z,100.00
2023-01-15T11:25:33.784Z,100.00
2023-01-15T11:28:03.475Z,100.00
2023-01-15T11:30:33.682Z,100.00
2023-01-15T11:33:05.483Z,100.00
2023-01-15T11:35:33.753Z,100.00
2023-01-15T11:38:05.392Z,100.00
2023-01-15T11:40:32.182Z,100.00
2023-01-15T11:43:17.478Z,100.00
2023-01-15T11:46:07.837Z,100.00
2023-01-15T11:49:02.430Z,100.00
2023-01-15T11:51:30.774Z,100.00
2023-01-15T11:54:03.609Z,100.00
2023-01-15T11:56:34.108Z,100.00
2023-01-15T11:59:10.545Z,100.00
2023-01-15T12:01:43.310Z,100.00
2023-01-15T12:04:25.194Z,100.00
2023-01-15T12:06:51.836Z,100.00
2023-01-15T12:09:24.895Z,100.00
2023-01-15T12:12:10.712Z,100.00
2023-01-15T12:15:06.115Z,100.00
2023-01-15T12:17:46.215Z,100.00
2023-01-15T12:20:21.988Z,100.00
2023-01-15T12:23:12.127Z,100.00
2023-01-15T12:25:41.395Z,100.00
2023-01-15T12:28:28.421Z,100.00
2023-01-15T12:31:02.072Z,100.00
2023-01-15T12:33:37.403Z,100.00
2023-01-15T12:36:10.343Z,100.00
2023-01-15T12:39:14.868Z,98.73
2023-01-15T12:42:02.650Z,98.34
2023-01-15T12:44:57.697Z,95.73
2023-01-15T12:47:44.380Z,95.66
2023-01-15T12:50:33.045Z,95.47
2023-01-15T12:53:07.039Z,95.10
2023-01-15T12:55:38.739Z,95.53
2023-01-15T12:58:13.541Z,95.34
2023-01-15T13:00:43.784Z,94.21
2023-01-15T13:03:17.102Z,94.21
2023-01-15T13:05:48.382Z,93.35
2023-01-15T13:08:31.071Z,93.64
2023-01-15T13:10:58.196Z,95.25
2023-01-15T13:13:29.888Z,94.80
2023-01-15T13:16:12.527Z,94.73
2023-01-15T13:19:05.936Z,92.84
2023-01-15T13:21:34.917Z,91.88
2023-01-15T13:24:17.074Z,90.72
2023-01-15T13:26:50.144Z,92.35
2023-01-15T13:29:30.454Z,94.33
2023-01-15T13:32:09.910Z,93.06
2023-01-15T13:35:14.824Z,91.20
2023-01-15T13:37:44.974Z,90.20
2023-01-15T13:40:38.372Z,90.01
2023-01-15T13:43:07.362Z,91.67
2023-01-15T13:45:36.881Z,92.92
2023-01-15T13:48:15.827Z,93.40
2023-01-15T13:50:57.847Z,92.73
2023-01-15T13:53:30.805Z,92.27
2023-01-15T13:56:02.526Z,90.03
2023-01-15T13:58:34.867Z,90.63
2023-01-15T14:01:10.043Z,93.41
2023-01-15T14:03:38.348Z,92.88
2023-01-15T14:06:08.057Z,91.27
2023-01-15T14:08:44.597Z,90.67
2023-01-15T14:11:35.687Z,90.83
2023-01-15T14:14:31.515Z,91.57
2023-01-15T14:17:06.835Z,91.63
2023-01-15T14:19:58.420Z,89.89
2023-01-15T14:22:30.958Z,91.67
2023-01-15T14:25:32.834Z,91.66
2023-01-15T14:28:22.369Z,92.51
2023-01-15T14:30:58.127Z,93.19
2023-01-15T14:33:34.652Z,93.13
2023-01-15T14:36:17.414Z,90.84
2023-01-15T14:38:51.935Z,91.88
2023-01-15T14:41:29.537Z,91.00
2023-01-15T14:43:59.550Z,92.30
2023-01-15T14:46:34.358Z,93.66
2023-01-15T14:49:01.854Z,92.70
2023-01-15T14:51:31.860Z,93.63
2023-01-15T14:54:06.552Z,92.78
2023-01-15T14:56:40.224Z,91.07
2023-01-15T14:59:27.985Z,91.44
2023-01-15T15:02:01.963Z,92.92
2023-01-15T15:04:39.724Z,91.85
2023-01-15T15:07:22.838Z,90.08
2023-01-15T15:10:01.230Z,91.15
2023-01-15T15:12:44.935Z,90.31
2023-01-15T15:15:15.151Z,89.41
2023-01-15T15:17:53.781Z,88.62
2023-01-15T15:20:39.673Z,89.78
2023-01-15T15:23:21.632Z,90.19
2023-01-15T15:25:56.096Z,88.96
2023-01-15T15:28:23.129Z,87.71
2023-01-15T15:30:50.360Z,89.37
2023-01-15T15:33:25.705Z,89.76
2023-01-15T15:35:58.451Z,88.85
2023-01-15T15:38:26.449Z,87.35
2023-01-15T15:41:02.468Z,88.67
2023-01-15T15:44:05.431Z,85.58
2023-01-15T15:46:51.213Z,88.39
2023-01-15T15:49:20.113Z,87.40
2023-01-15T15:51:50.025Z,87.62
2023-01-15T15:54:22.417Z,87.41
2023-01-15T15:57:07.221Z,86.89
2023-01-15T15:59:36.658Z,88.91
2023-01-15T16:02:26.058Z,89.12
2023-01-15T16:04:54.744Z,88.45
2023-01-15T16:07:33.612Z,88.00
2023-01-15T16:10:03.890Z,87.80
2023-01-15T16:12:33.483Z,89.84
2023-01-15T16:15:00.518Z,88.59
2023-01-15T16:17:28.229Z,88.41
2023-01-15T16:19:56.834Z,88.80
2023-01-15T16:22:23.655Z,87.48
2023-01-15T16:24:58.063Z,86.89
2023-01-15T16:27:33.955Z,87.93
2023-01-15T16:30:00.684Z,87.32
2023-01-15T16:32:29.523Z,84.24
2023-01-15T16:35:05.370Z,85.99
2023-01-15T16:37:32.590Z,84.67
2023-01-15T16:40:00.028Z,84.87
2023-01-15T16:42:34.257Z,82.61
2023-01-15T16:45:01.845Z,83.31
2023-01-15T16:47:33.269Z,81.43
2023-01-15T16:50:21.784Z,82.55
2023-01-15T16:52:56.756Z,82.16
2023-01-15T16:55:38.265Z,80.29
2023-01-15T16:58:16.357Z,81.28
2023-01-15T17:00:51.031Z,80.87
2023-01-15T17:03:23.021Z,79.56
2023-01-15T17:05:53.521Z,80.82
2023-01-15T17:08:27.319Z,80.84
2023-01-15T17:10:56.376Z,80.14
2023-01-15T17:13:29.139Z,79.60
2023-01-15T17:16:13.911Z,80.47
2023-01-15T17:18:40.558Z,80.74
2023-01-15T17:21:15.458Z,79.74
2023-01-15T17:23:42.970Z,79.68
2023-01-15T17:26:18.959Z,79.97
2023-01-15T17:28:46.452Z,80.09
2023-01-15T17:31:20.783Z,79.08
2023-01-15T17:33:51.768Z,79.44
2023-01-15T17:36:24.170Z,79.26
2023-01-15T17:38:52.165Z,78.97
2023-01-15T17:41:20.949Z,78.81
2023-01-15T17:43:47.877Z,78.75
2023-01-15T17:46:14.693Z,78.74
2023-01-15T17:48:41.668Z,78.41
2023-01-15T17:51:16.636Z,79.26
2023-01-15T17:53:43.477Z,79.24
2023-01-15T17:56:28.954Z,78.38
2023-01-15T17:59:34.049Z,76.29
2023-01-15T18:02:20.257Z,78.05
2023-01-15T18:05:07.489Z,77.24
2023-01-15T18:07:40.917Z,77.40
2023-01-15T18:10:17.395Z,78.23
2023-01-15T18:12:44.141Z,77.43
2023-01-15T18:15:11.047Z,78.06
2023-01-15T18:17:37.825Z,77.65
2023-01-15T18:20:04.995Z,77.44
2023-01-15T18:22:31.640Z,76.71
2023-01-15T18:24:58.442Z,76.78
2023-01-15T18:27:29.969Z,76.32
2023-01-15T18:29:57.327Z,77.49
2023-01-15T18:32:33.353Z,76.58
2023-01-15T18:35:00.425Z,77.45
2023-01-15T18:37:27.033Z,76.20
2023-01-15T18:39:53.622Z,76.46
2023-01-15T18:42:38.954Z,77.02
2023-01-15T18:45:25.271Z,77.18
2023-01-15T18:47:52.849Z,77.28
2023-01-15T18:50:19.781Z,77.67
2023-01-15T18:52:50.195Z,78.06
2023-01-15T18:55:22.669Z,78.39
2023-01-15T18:57:49.307Z,78.28
2023-01-15T19:00:16.434Z,80.40
2023-01-15T19:02:45.073Z,79.28
2023-01-15T19:05:13.159Z,80.01
2023-01-15T19:07:40.606Z,79.03
2023-01-15T19:10:07.552Z,78.63
2023-01-15T19:12:36.877Z,79.92
2023-01-15T19:15:23.722Z,79.60
2023-01-15T19:18:09.172Z,79.76
2023-01-15T19:20:37.887Z,80.31
2023-01-15T19:23:06.628Z,79.09
2023-01-15T19:25:44.408Z,78.94
2023-01-15T19:28:16.502Z,79.24
2023-01-15T19:31:05.060Z,78.84
2023-01-15T19:33:32.695Z,80.15
2023-01-15T19:35:59.459Z,79.81
2023-01-15T19:38:26.383Z,80.00
2023-01-15T19:40:53.127Z,80.99
2023-01-15T19:43:38.454Z,80.57
2023-01-15T19:46:24.387Z,80.55
2023-01-15T19:49:09.842Z,81.57
2023-01-15T19:51:56.651Z,80.47
2023-01-15T19:54:43.579Z,82.03
2023-01-15T19:57:10.433Z,83.44
2023-01-15T19:59:39.372Z,81.63
2023-01-15T20:02:05.983Z,81.51
2023-01-15T20:04:32.616Z,81.78
2023-01-15T20:06:59.319Z,82.11
2023-01-15T20:09:26.223Z,82.28
2023-01-15T20:12:11.386Z,82.74
2023-01-15T20:14:38.295Z,82.59
2023-01-15T20:17:04.855Z,82.79
2023-01-15T20:19:31.527Z,84.86
2023-01-15T20:21:58.856Z,84.14
2023-01-15T20:24:25.549Z,83.89
2023-01-15T20:26:52.111Z,84.14
2023-01-15T20:29:18.672Z,83.96
2023-01-15T20:31:45.301Z,85.01
2023-01-15T20:34:11.963Z,83.85
2023-01-15T20:36:38.802Z,84.31
2023-01-15T20:39:05.513Z,85.45
2023-01-15T20:41:50.721Z,84.69
2023-01-15T20:44:36.284Z,85.59
2023-01-15T20:47:23.022Z,84.53
2023-01-15T20:49:49.825Z,84.94
2023-01-15T20:52:16.397Z,84.39
2023-01-15T20:54:43.050Z,85.60
2023-01-15T20:57:09.692Z,85.05
2023-01-15T20:59:36.256Z,85.35
2023-01-15T21:02:02.868Z,85.49
2023-01-15T21:04:32.696Z,85.66
2023-01-15T21:06:59.310Z,84.82
2023-01-15T21:09:26.363Z,84.42
2023-01-15T21:11:52.945Z,84.16
2023-01-15T21:14:19.588Z,83.63
2023-01-15T21:16:46.204Z,83.86
2023-01-15T21:19:13.146Z,84.32
2023-01-15T21:21:40.650Z,83.51
2023-01-15T21:24:07.702Z,83.74
2023-01-15T21:26:42.580Z,84.54
2023-01-15T21:29:09.207Z,83.47
2023-01-15T21:31:35.987Z,82.22
2023-01-15T21:34:04.419Z,82.99
2023-01-15T21:36:31.513Z,83.11
2023-01-15T21:39:00.671Z,84.57
2023-01-15T21:41:46.509Z,84.35
2023-01-15T21:44:36.205Z,83.77
2023-01-15T21:47:05.475Z,84.48
2023-01-15T21:49:33.526Z,84.50
2023-01-15T21:52:01.400Z,83.05
2023-01-15T21:54:28.559Z,83.85
2023-01-15T21:56:55.626Z,85.40
2023-01-15T21:59:22.316Z,84.08
2023-01-15T22:01:52.147Z,84.11
2023-01-15T22:04:21.223Z,85.17
2023-01-15T22:06:47.943Z,84.00
2023-01-15T22:09:14.855Z,84.31
2023-01-15T22:11:44.339Z,84.99
2023-01-15T22:14:19.493Z,84.88
2023-01-15T22:16:47.099Z,85.04
2023-01-15T22:19:19.757Z,84.84
2023-01-15T22:21:52.535Z,84.41
2023-01-15T22:24:20.060Z,86.67
2023-01-15T22:26:54.432Z,85.88
2023-01-15T22:29:25.883Z,85.03
2023-01-15T22:31:53.100Z,85.80
2023-01-15T22:34:24.538Z,86.62
2023-01-15T22:36:52.048Z,85.08
2023-01-15T22:39:19.199Z,85.20
2023-01-15T22:42:10.613Z,84.17
2023-01-15T22:44:40.499Z,84.94
2023-01-15T22:47:07.290Z,84.70
2023-01-15T22:49:34.136Z,84.60
2023-01-15T22:52:07.858Z,84.35
2023-01-15T22:54:34.548Z,84.20
2023-01-15T22:57:05.228Z,85.28
2023-01-15T22:59:32.005Z,86.49
2023-01-15T23:01:58.983Z,89.45
2023-01-15T23:04:25.937Z,89.67
2023-01-15T23:06:54.724Z,89.84
2023-01-15T23:09:23.103Z,91.20
2023-01-15T23:11:51.698Z,90.90
2023-01-15T23:14:20.101Z,91.40
2023-01-15T23:16:47.319Z,91.80
2023-01-15T23:19:14.666Z,93.15
2023-01-15T23:21:41.655Z,93.24
2023-01-15T23:24:08.404Z,92.03
2023-01-15T23:26:35.381Z,90.62
2023-01-15T23:29:02.213Z,88.73
2023-01-15T23:31:29.328Z,90.39
2023-01-15T23:33:59.075Z,90.39
2023-01-15T23:36:26.356Z,88.69
2023-01-15T23:38:53.121Z,90.81
2023-01-15T23:41:43.026Z,87.01
2023-01-15T23:44:38.858Z,85.95
2023-01-15T23:47:07.682Z,88.15
2023-01-15T23:49:34.318Z,88.17
2023-01-15T23:52:01.177Z,87.89
2023-01-15T23:54:29.858Z,88.63
2023-01-15T23:56:57.970Z,88.04
2023-01-15T23:59:25.565Z,88.67
